Red Deer Regional Airport
CYQF : now visible

Airfield :











YOU CAN JOIN US ON...

 
LOGIN :

Register | Disclaimer

   EN    FR    IT 

 









Legend :    VFR   Marginal VFR   IFR   Intensive IFR   Very Intensive IFR
Visi :
Ceiling :
>= 8 km
>= 3000ft
5 to 8 km
1000 to 3000 ft
1500m to 5 km
500 to 1000 ft
800 to 1500m
200 to 500 ft
< 800m
< 200 ft
Symbols :   Thunderstorms  Fog  Heavy snow  Heavy precipitations  Wind > 20 kt






- Airport Elevation : 2968 ft
- IATA code : YQF


CYQF - Red Deer Regional

CURRENT METAR :
  • 080700Z AUTO 33005KT 9SM OVC160 M04/M06 A2966 RMK SLP085

EXPIRED METARs :
  • 080600Z AUTO 01003KT 9SM SCT130 OVC150 M04/M06 A2966 RMK SLP087
  • 080500Z AUTO 34005KT 9SM BKN160 BKN180 M03/M05 A2966 RMK SLP087

TAF TAF CYQF
Valid from the 08 at 06:00 until the 08 at 18:00 UTC


080545Z 0806/0818 34005KT P6SM BKN160
FM080800 29008KT P6SM SCT090 BKN160
BECMG 0809/0811 32020G30KT
FM081100 32018G28KT P6SM SCT015 OVC050
TEMPO 0811/0814 SCT008 OVC015
FM081400 32018G28KT 6SM -SHSN SCT010 OVC025
TEMPO 0814/0817 3/4SM -SHSN VV008
FM081700 32010KT P6SM -SHSN SCT025 BKN050
BECMG 0817/0818 P6SM NSW SCT050 BKN080 RMK FCST BASED ON AUTO OBS. NXT FCST BY 081200Z
CZEG FIR / North America



MET'MAP, your aeronautical weather chart ! - Copyright ORBIFLY December 2007 - Disclaimer

ORBIFLY MET'MAP TEAM :

Programming & Development : Alexandra Zaïnal
Original concept : Baudouin d'Aumeries
Technical & hardware support : Manuel Goepfert
Assistance : Marc-Olivier Méhu




SOURCES & CREDITS :

   NOAA       Earth
Advisory